createdAt,value
2023-02-01T00:01:13.946Z,6.93
2023-02-01T00:03:41.649Z,6.75
2023-02-01T00:06:09.525Z,5.82
2023-02-01T00:08:37.253Z,6.50
2023-02-01T00:11:07.126Z,6.15
2023-02-01T00:13:38.942Z,6.07
2023-02-01T00:16:09.035Z,5.72
2023-02-01T00:18:37.224Z,6.13
2023-02-01T00:21:05.307Z,5.78
2023-02-01T00:23:35.248Z,6.47
2023-02-01T00:26:03.442Z,5.70
2023-02-01T00:28:31.389Z,5.80
2023-02-01T00:31:01.477Z,4.70
2023-02-01T00:33:29.486Z,5.13
2023-02-01T00:35:59.652Z,5.22
2023-02-01T00:38:27.569Z,5.65
2023-02-01T00:40:55.534Z,4.90
2023-02-01T00:43:23.240Z,5.45
2023-02-01T00:45:50.908Z,5.53
2023-02-01T00:48:19.951Z,5.20
2023-02-01T00:50:47.612Z,4.63
2023-02-01T00:53:15.316Z,4.90
2023-02-01T00:55:46.199Z,5.28
2023-02-01T00:58:13.968Z,5.53
2023-02-01T01:00:41.790Z,5.20
2023-02-01T01:03:18.621Z,6.13
2023-02-01T01:05:48.674Z,6.55
2023-02-01T01:08:17.482Z,6.30
2023-02-01T01:10:45.624Z,6.85
2023-02-01T01:13:13.276Z,6.57
2023-02-01T01:15:41.965Z,7.00
2023-02-01T01:18:10.308Z,6.90
2023-02-01T01:20:39.564Z,7.00
2023-02-01T01:23:09.512Z,7.32
2023-02-01T01:25:40.005Z,6.85
2023-02-01T01:28:08.524Z,6.85
2023-02-01T01:30:37.114Z,7.05
2023-02-01T01:33:04.968Z,6.97
2023-02-01T01:35:33.188Z,6.60
2023-02-01T01:38:01.882Z,7.10
2023-02-01T01:40:31.823Z,6.93
2023-02-01T01:43:00.253Z,7.03
2023-02-01T01:45:29.932Z,6.80
2023-02-01T01:48:01.519Z,6.85
2023-02-01T01:50:33.764Z,6.37
2023-02-01T01:53:05.278Z,6.40
2023-02-01T01:55:39.400Z,6.57
2023-02-01T01:58:10.879Z,5.40
2023-02-01T02:00:39.254Z,5.93
2023-02-01T02:03:14.040Z,5.93
2023-02-01T02:05:42.061Z,5.82
2023-02-01T02:08:09.785Z,5.97
2023-02-01T02:10:56.276Z,5.47
2023-02-01T02:13:24.663Z,5.32
2023-02-01T02:16:06.336Z,5.45
2023-02-01T02:18:46.540Z,4.53
2023-02-01T02:21:20.458Z,5.05
2023-02-01T02:24:16.176Z,4.75
2023-02-01T02:27:23.926Z,5.05
2023-02-01T02:30:18.697Z,4.80
2023-02-01T02:33:17.333Z,4.82
2023-02-01T02:35:53.667Z,4.40
2023-02-01T02:38:30.757Z,4.22
2023-02-01T02:41:08.266Z,4.50
2023-02-01T02:44:02.552Z,4.63
2023-02-01T02:46:55.664Z,4.60
2023-02-01T02:49:30.132Z,4.47
2023-02-01T02:52:22.288Z,4.20
2023-02-01T02:54:52.904Z,4.47
2023-02-01T02:57:42.773Z,4.28
2023-02-01T03:00:30.762Z,4.40
2023-02-01T03:03:16.120Z,4.47
2023-02-01T03:05:46.549Z,4.13
2023-02-01T03:08:18.190Z,4.22
2023-02-01T03:10:55.742Z,4.27
2023-02-01T03:13:29.477Z,4.20
2023-02-01T03:16:04.521Z,3.92
2023-02-01T03:18:38.419Z,4.47
2023-02-01T03:21:11.625Z,4.32
2023-02-01T03:23:41.068Z,3.92
2023-02-01T03:26:14.269Z,4.55
2023-02-01T03:28:49.512Z,4.43
2023-02-01T03:31:17.528Z,4.28
2023-02-01T03:33:45.461Z,4.75
2023-02-01T03:36:20.201Z,4.50
2023-02-01T03:39:00.255Z,4.70
2023-02-01T03:41:32.509Z,4.65
2023-02-01T03:44:09.148Z,4.95
2023-02-01T03:46:41.181Z,5.13
2023-02-01T03:49:12.523Z,5.35
2023-02-01T03:51:42.054Z,4.80
2023-02-01T03:54:15.463Z,5.18
2023-02-01T03:56:46.293Z,5.00
2023-02-01T03:59:15.659Z,4.32
2023-02-01T04:01:43.442Z,5.18
2023-02-01T04:04:11.333Z,5.13
2023-02-01T04:06:39.123Z,4.50
2023-02-01T04:09:06.846Z,5.05
2023-02-01T04:11:35.936Z,5.05
2023-02-01T04:14:05.384Z,4.63
2023-02-01T04:16:33.437Z,5.07
2023-02-01T04:19:01.560Z,4.65
2023-02-01T04:21:29.698Z,5.10
2023-02-01T04:23:57.428Z,4.07
2023-02-01T04:26:25.198Z,5.22
2023-02-01T04:28:55.034Z,5.20
2023-02-01T04:31:26.585Z,5.43
2023-02-01T04:33:54.903Z,5.18
2023-02-01T04:36:23.665Z,5.38
2023-02-01T04:38:52.015Z,5.18
2023-02-01T04:41:20.138Z,4.78
2023-02-01T04:43:48.126Z,5.13
2023-02-01T04:46:17.553Z,5.05
2023-02-01T04:48:45.315Z,5.93
2023-02-01T04:51:13.024Z,5.20
2023-02-01T04:53:40.783Z,5.50
2023-02-01T04:56:09.539Z,5.05
2023-02-01T04:58:37.300Z,4.80
2023-02-01T05:01:05.654Z,5.43
2023-02-01T05:03:35.738Z,4.60
2023-02-01T05:06:05.043Z,4.93
2023-02-01T05:08:33.281Z,5.10
2023-02-01T05:11:03.449Z,5.45
2023-02-01T05:13:48.743Z,5.18
2023-02-01T05:16:16.789Z,4.45
2023-02-01T05:18:45.976Z,5.53
2023-02-01T05:21:14.545Z,4.40
2023-02-01T05:23:56.165Z,5.20
2023-02-01T05:26:23.948Z,4.95
2023-02-01T05:28:51.817Z,5.20
2023-02-01T05:31:19.639Z,4.82
2023-02-01T05:33:48.804Z,4.55
2023-02-01T05:36:16.675Z,5.10
2023-02-01T05:38:44.492Z,5.20
2023-02-01T05:41:12.164Z,5.43
2023-02-01T05:43:39.893Z,4.88
2023-02-01T05:46:07.646Z,5.10
2023-02-01T05:48:35.410Z,5.00
2023-02-01T05:51:04.662Z,5.47
2023-02-01T05:53:32.417Z,5.38
2023-02-01T05:56:00.264Z,4.97
2023-02-01T06:00:55.716Z,5.65
2023-02-01T06:03:23.623Z,4.75
2023-02-01T06:05:51.331Z,5.47
2023-02-01T06:08:20.492Z,4.45
2023-02-01T06:10:48.252Z,5.10
2023-02-01T06:13:16.089Z,4.78
2023-02-01T06:15:45.102Z,4.80
2023-02-01T06:18:12.917Z,5.30
2023-02-01T06:20:40.565Z,5.10
2023-02-01T06:23:08.436Z,5.55
2023-02-01T06:25:38.559Z,5.68
2023-02-01T06:28:07.152Z,5.18
2023-02-01T06:30:34.814Z,5.25
2023-02-01T06:33:02.440Z,5.55
2023-02-01T06:35:30.262Z,5.55
2023-02-01T06:37:58.954Z,4.95
2023-02-01T06:40:27.002Z,5.68
2023-02-01T06:42:56.074Z,5.68
2023-02-01T06:45:23.740Z,6.10
2023-02-01T06:47:51.769Z,5.93
2023-02-01T06:50:19.698Z,5.50
2023-02-01T06:52:47.464Z,5.13
2023-02-01T06:55:15.283Z,5.38
2023-02-01T06:57:43.019Z,5.38
2023-02-01T07:00:13.497Z,5.50
2023-02-01T07:02:41.175Z,5.22
2023-02-01T07:05:09.468Z,5.22
2023-02-01T07:07:37.211Z,5.35
2023-02-01T07:10:05.351Z,5.93
2023-02-01T07:12:33.117Z,5.28
2023-02-01T07:15:02.642Z,5.45
2023-02-01T07:17:31.842Z,5.43
2023-02-01T07:20:00.796Z,5.55
2023-02-01T07:22:28.517Z,5.53
2023-02-01T07:24:56.237Z,5.18
2023-02-01T07:27:25.915Z,5.90
2023-02-01T07:29:53.726Z,4.78
2023-02-01T07:32:21.539Z,5.70
2023-02-01T07:34:50.709Z,5.47
2023-02-01T07:37:19.000Z,5.35
2023-02-01T07:39:46.688Z,6.07
2023-02-01T07:42:14.424Z,6.55
2023-02-01T07:44:42.170Z,5.43
2023-02-01T07:47:09.835Z,6.35
2023-02-01T07:49:37.620Z,5.50
2023-02-01T07:52:06.928Z,6.00
2023-02-01T07:54:34.579Z,6.25
2023-02-01T07:57:02.236Z,5.85
2023-02-01T07:59:30.018Z,5.80
2023-02-01T08:01:57.760Z,5.55
2023-02-01T08:04:25.416Z,5.95
2023-02-01T08:06:53.090Z,5.60
2023-02-01T08:09:22.106Z,5.63
2023-02-01T08:11:49.759Z,5.03
2023-02-01T08:14:17.493Z,5.68
2023-02-01T08:16:45.197Z,6.30
2023-02-01T08:19:12.894Z,5.68
2023-02-01T08:21:40.534Z,5.95
2023-02-01T08:24:11.074Z,5.63
2023-02-01T08:26:40.231Z,5.85
2023-02-01T08:29:10.148Z,5.93
2023-02-01T08:31:41.534Z,5.60
2023-02-01T08:34:10.720Z,6.35
2023-02-01T08:36:39.152Z,5.63
2023-02-01T08:39:10.053Z,6.10
2023-02-01T08:41:38.284Z,5.68
2023-02-01T08:44:07.689Z,5.47
2023-02-01T08:46:35.418Z,6.35
2023-02-01T08:49:03.083Z,5.97
2023-02-01T08:51:30.880Z,6.35
2023-02-01T08:53:58.532Z,6.40
2023-02-01T08:56:26.222Z,5.97
2023-02-01T08:58:53.883Z,5.82
2023-02-01T09:01:22.930Z,5.20
2023-02-01T09:03:50.810Z,5.63
2023-02-01T09:06:18.546Z,5.57
2023-02-01T09:08:46.734Z,5.30
2023-02-01T09:11:16.867Z,5.80
2023-02-01T09:13:44.553Z,6.20
2023-02-01T09:16:12.564Z,5.85
2023-02-01T09:18:50.828Z,4.70
2023-02-01T09:21:30.645Z,6.45
2023-02-01T09:23:58.344Z,5.40
2023-02-01T09:26:32.186Z,5.55
2023-02-01T09:29:00.719Z,5.13
2023-02-01T09:31:28.492Z,5.38
2023-02-01T09:33:57.805Z,6.13
2023-02-01T09:36:25.683Z,6.00
2023-02-01T09:38:54.082Z,6.47
2023-02-01T09:41:40.146Z,6.00
2023-02-01T09:44:25.645Z,5.22
2023-02-01T09:46:57.115Z,5.53
2023-02-01T09:49:30.461Z,5.47
2023-02-01T09:51:58.980Z,5.53
2023-02-01T09:54:30.807Z,6.05
2023-02-01T09:57:06.440Z,5.45
2023-02-01T09:59:40.004Z,5.60
2023-02-01T10:02:14.942Z,5.68
2023-02-01T10:04:44.163Z,5.22
2023-02-01T10:07:23.821Z,5.63
2023-02-01T10:10:02.436Z,6.03
2023-02-01T10:12:59.916Z,5.40
2023-02-01T10:15:45.271Z,5.78
2023-02-01T10:18:34.592Z,5.40
2023-02-01T10:21:10.804Z,5.00
2023-02-01T10:23:57.352Z,5.72
2023-02-01T10:26:27.063Z,5.45
2023-02-01T10:28:58.299Z,5.65
2023-02-01T10:31:29.218Z,6.03
2023-02-01T10:33:59.600Z,5.63
2023-02-01T10:36:32.841Z,5.57
2023-02-01T10:39:01.498Z,5.85
2023-02-01T10:41:33.788Z,5.78
2023-02-01T10:44:05.261Z,5.88
2023-02-01T10:46:34.060Z,5.90
2023-02-01T10:49:05.724Z,5.85
2023-02-01T10:51:45.216Z,6.20
2023-02-01T10:54:18.336Z,5.10
2023-02-01T10:56:47.377Z,5.40
2023-02-01T10:59:19.811Z,5.60
2023-02-01T11:04:17.874Z,5.63
2023-02-01T11:06:49.734Z,5.85
2023-02-01T11:09:22.710Z,5.18
2023-02-01T11:11:59.901Z,6.13
2023-02-01T11:14:37.359Z,5.95
2023-02-01T11:17:25.037Z,5.53
2023-02-01T11:19:59.750Z,5.10
2023-02-01T11:22:30.644Z,5.35
2023-02-01T11:24:59.122Z,5.43
2023-02-01T11:27:28.266Z,5.32
2023-02-01T11:30:00.256Z,5.55
2023-02-01T11:32:29.262Z,5.05
2023-02-01T11:35:01.602Z,4.75
2023-02-01T11:37:33.429Z,4.80
2023-02-01T11:40:03.058Z,5.30
2023-02-01T11:42:31.482Z,5.30
2023-02-01T11:45:20.049Z,5.55
2023-02-01T11:47:48.006Z,5.47
2023-02-01T11:50:19.835Z,5.15
2023-02-01T11:53:05.449Z,5.32
2023-02-01T11:55:51.591Z,5.07
2023-02-01T11:58:36.090Z,5.60
2023-02-01T12:01:23.611Z,5.63
2023-02-01T12:04:25.406Z,5.07
2023-02-01T12:06:55.872Z,5.10
2023-02-01T12:09:46.918Z,4.88
2023-02-01T12:12:23.902Z,4.60
2023-02-01T12:15:07.243Z,4.72
2023-02-01T12:17:56.793Z,4.75
2023-02-01T12:20:36.267Z,5.43
2023-02-01T12:23:21.088Z,4.35
2023-02-01T12:26:04.312Z,5.13
2023-02-01T12:28:57.696Z,3.70
2023-02-01T12:31:50.685Z,4.25
2023-02-01T12:34:31.278Z,3.75
2023-02-01T12:37:15.449Z,3.78
2023-02-01T12:39:50.502Z,4.20
2023-02-01T12:42:25.860Z,4.07
2023-02-01T12:44:58.257Z,4.38
2023-02-01T12:47:34.216Z,4.43
2023-02-01T12:50:05.252Z,4.53
2023-02-01T12:52:40.650Z,4.43
2023-02-01T12:55:18.871Z,3.95
2023-02-01T12:57:53.388Z,4.18
2023-02-01T13:00:28.854Z,4.38
2023-02-01T13:03:03.194Z,4.20
2023-02-01T13:05:39.780Z,4.78
2023-02-01T13:08:11.897Z,3.60
2023-02-01T13:10:44.121Z,4.15
2023-02-01T13:13:24.835Z,3.90
2023-02-01T13:15:59.376Z,3.78
2023-02-01T13:18:34.289Z,3.90
2023-02-01T13:21:08.951Z,4.18
2023-02-01T13:23:42.095Z,4.20
2023-02-01T13:26:09.892Z,4.18
2023-02-01T13:28:43.835Z,4.00
2023-02-01T13:31:30.696Z,3.58
2023-02-01T13:34:39.739Z,4.20
2023-02-01T13:37:24.801Z,4.03
2023-02-01T13:40:09.992Z,4.47
2023-02-01T13:42:47.651Z,4.07
2023-02-01T13:45:21.533Z,3.78
2023-02-01T13:47:53.850Z,4.40
2023-02-01T13:50:28.377Z,4.43
2023-02-01T13:52:58.889Z,4.68
2023-02-01T13:55:31.639Z,4.10
2023-02-01T13:58:15.727Z,3.80
2023-02-01T14:00:45.996Z,4.45
2023-02-01T14:03:17.917Z,4.28
2023-02-01T14:06:04.381Z,4.03
2023-02-01T14:09:11.913Z,6.47
2023-02-01T14:11:43.890Z,7.00
2023-02-01T14:14:45.799Z,4.65
2023-02-01T14:17:39.127Z,4.80
2023-02-01T14:20:55.424Z,4.28
2023-02-01T14:23:30.859Z,3.58
2023-02-01T14:26:23.844Z,3.60
2023-02-01T14:28:56.336Z,4.47
2023-02-01T14:34:24.032Z,3.45
2023-02-01T14:36:57.536Z,4.28
2023-02-01T14:39:39.498Z,3.40
2023-02-01T14:42:20.765Z,4.35
2023-02-01T14:44:58.871Z,4.32
2023-02-01T14:47:31.836Z,3.83
2023-02-01T14:50:29.148Z,4.45
2023-02-01T14:53:22.947Z,4.00
2023-02-01T14:55:53.513Z,3.83
2023-02-01T14:58:33.991Z,3.60
2023-02-01T15:01:03.858Z,3.75
2023-02-01T15:03:47.616Z,4.40
2023-02-01T15:06:29.969Z,3.95
2023-02-01T15:09:01.679Z,4.70
2023-02-01T15:11:29.925Z,4.47
2023-02-01T15:13:58.180Z,4.00
2023-02-01T15:16:27.459Z,4.07
2023-02-01T15:19:19.194Z,4.15
2023-02-01T15:21:50.693Z,4.00
2023-02-01T15:24:23.033Z,4.18
2023-02-01T15:26:51.874Z,4.57
2023-02-01T15:29:21.073Z,4.70
2023-02-01T15:31:52.530Z,4.72
2023-02-01T15:34:21.094Z,4.55
2023-02-01T15:37:02.370Z,4.53
2023-02-01T15:39:32.557Z,4.40
2023-02-01T15:42:10.771Z,4.60
2023-02-01T15:44:42.246Z,4.13
2023-02-01T15:47:17.617Z,4.03
2023-02-01T15:49:49.227Z,4.22
2023-02-01T15:52:29.107Z,3.53
2023-02-01T15:55:00.780Z,3.65
2023-02-01T15:57:32.511Z,4.68
2023-02-01T16:00:04.114Z,4.20
2023-02-01T16:02:36.642Z,3.90
2023-02-01T16:05:06.087Z,4.32
2023-02-01T16:07:36.490Z,4.22
2023-02-01T16:10:26.621Z,4.18
2023-02-01T16:12:59.567Z,4.25
2023-02-01T16:15:27.284Z,4.25
2023-02-01T16:17:54.992Z,4.10
2023-02-01T16:20:22.718Z,5.65
2023-02-01T16:22:51.789Z,5.40
2023-02-01T16:25:19.525Z,5.07
2023-02-01T16:27:47.219Z,4.43
2023-02-01T16:30:15.554Z,4.82
2023-02-01T16:32:43.316Z,4.88
2023-02-01T16:35:19.989Z,4.35
2023-02-01T16:37:47.818Z,4.35
2023-02-01T16:40:17.893Z,4.30
2023-02-01T16:42:47.178Z,4.93
2023-02-01T16:45:15.042Z,4.80
2023-02-01T16:47:49.067Z,4.85
2023-02-01T16:50:23.388Z,4.95
2023-02-01T16:52:51.770Z,4.40
2023-02-01T16:55:23.919Z,4.75
2023-02-01T17:00:25.588Z,4.35
2023-02-01T17:02:54.595Z,4.47
2023-02-01T17:05:23.310Z,5.10
2023-02-01T17:07:51.526Z,4.00
2023-02-01T17:10:34.535Z,4.43
2023-02-01T17:13:03.298Z,4.95
2023-02-01T17:15:36.846Z,4.15
2023-02-01T17:18:05.406Z,4.35
2023-02-01T17:20:34.537Z,5.18
2023-02-01T17:23:02.886Z,4.47
2023-02-01T17:25:33.234Z,4.97
2023-02-01T17:28:01.421Z,5.20
2023-02-01T17:30:29.507Z,4.15
2023-02-01T17:32:57.637Z,4.00
2023-02-01T17:35:28.079Z,4.45
2023-02-01T17:37:56.309Z,4.45
2023-02-01T17:40:24.642Z,4.65
2023-02-01T17:42:57.545Z,4.45
2023-02-01T17:45:37.529Z,5.38
2023-02-01T17:48:06.598Z,4.97
2023-02-01T17:50:37.987Z,5.43
2023-02-01T17:53:09.668Z,4.30
2023-02-01T17:55:39.401Z,4.90
2023-02-01T17:58:08.822Z,4.78
2023-02-01T18:00:38.183Z,4.63
2023-02-01T18:03:06.942Z,4.40
2023-02-01T18:05:41.228Z,4.35
2023-02-01T18:08:09.246Z,4.47
2023-02-01T18:10:37.704Z,4.45
2023-02-01T18:13:05.617Z,5.20
2023-02-01T18:15:34.974Z,4.72
2023-02-01T18:18:02.794Z,5.22
2023-02-01T18:20:30.583Z,4.47
2023-02-01T18:22:58.344Z,4.70
2023-02-01T18:25:27.691Z,4.97
2023-02-01T18:27:57.322Z,5.32
2023-02-01T18:30:37.161Z,4.63
2023-02-01T18:33:10.084Z,3.67
2023-02-01T18:35:38.144Z,5.03
2023-02-01T18:38:06.790Z,5.95
2023-02-01T18:40:37.659Z,5.88
2023-02-01T18:43:08.467Z,6.70
2023-02-01T18:45:37.701Z,6.50
2023-02-01T18:48:08.767Z,6.05
2023-02-01T18:50:37.887Z,5.05
2023-02-01T18:53:07.204Z,7.00
2023-02-01T18:55:35.420Z,6.68
2023-02-01T18:58:06.535Z,5.15
2023-02-01T19:00:35.540Z,5.47
2023-02-01T19:03:03.316Z,5.78
2023-02-01T19:05:33.059Z,5.80
2023-02-01T19:08:00.813Z,4.95
2023-02-01T19:10:28.648Z,5.55
2023-02-01T19:12:57.505Z,4.68
2023-02-01T19:15:26.817Z,4.95
2023-02-01T19:17:56.065Z,5.30
2023-02-01T19:20:25.570Z,5.53
2023-02-01T19:22:55.368Z,4.60
2023-02-01T19:25:25.577Z,6.53
2023-02-01T19:27:54.564Z,9.68
2023-02-01T19:30:23.437Z,5.78
2023-02-01T19:32:52.259Z,5.00
2023-02-01T19:35:22.286Z,4.90
2023-02-01T19:37:54.426Z,5.38
2023-02-01T19:40:42.301Z,6.10
2023-02-01T19:43:19.416Z,5.40
2023-02-01T19:45:54.980Z,6.57
2023-02-01T19:48:31.155Z,2.90
2023-02-01T19:50:59.690Z,3.90
2023-02-01T19:53:28.267Z,2.50
2023-02-01T19:55:57.874Z,2.17
2023-02-01T19:58:26.251Z,1.50
2023-02-01T20:00:54.940Z,1.90
2023-02-01T20:03:23.641Z,1.90
2023-02-01T20:05:52.136Z,1.60
2023-02-01T20:08:20.018Z,2.40
2023-02-01T20:10:48.051Z,2.00
2023-02-01T20:13:17.535Z,2.17
2023-02-01T20:15:45.330Z,1.90
2023-02-01T20:18:13.563Z,1.80
2023-02-01T20:20:41.852Z,2.15
2023-02-01T20:23:09.707Z,2.30
2023-02-01T20:25:38.794Z,2.03
2023-02-01T20:28:06.547Z,2.47
2023-02-01T20:30:35.695Z,2.47
2023-02-01T20:33:03.347Z,3.42
2023-02-01T20:35:31.066Z,4.20
2023-02-01T20:37:59.041Z,3.00
2023-02-01T20:40:26.799Z,3.58
2023-02-01T20:42:54.521Z,3.60
2023-02-01T20:45:22.463Z,3.13
2023-02-01T20:47:52.668Z,2.60
2023-02-01T20:50:20.575Z,3.05
2023-02-01T20:52:48.301Z,3.03
2023-02-01T20:55:16.097Z,3.30
2023-02-01T20:57:43.925Z,3.78
2023-02-01T21:00:13.044Z,3.70
2023-02-01T21:02:40.792Z,3.75
2023-02-01T21:05:11.219Z,4.28
2023-02-01T21:07:42.140Z,5.15
2023-02-01T21:10:11.611Z,5.18
2023-02-01T21:12:39.930Z,5.60
2023-02-01T21:15:08.766Z,6.20
2023-02-01T21:17:54.327Z,7.85
2023-02-01T21:20:25.343Z,6.93
2023-02-01T21:23:01.888Z,6.07
2023-02-01T21:25:33.072Z,6.75
2023-02-01T21:28:04.567Z,6.95
2023-02-01T21:30:32.258Z,6.10
2023-02-01T21:33:00.767Z,5.57
2023-02-01T21:35:30.223Z,5.30
2023-02-01T21:37:58.274Z,6.45
2023-02-01T21:40:25.965Z,6.28
2023-02-01T21:42:53.659Z,5.38
2023-02-01T21:45:21.420Z,5.97
2023-02-01T21:47:49.777Z,5.13
2023-02-01T21:50:19.263Z,3.88
2023-02-01T21:52:48.834Z,4.10
2023-02-01T21:55:16.755Z,3.83
2023-02-01T21:57:44.506Z,2.75
2023-02-01T22:00:14.118Z,3.10
2023-02-01T22:02:41.967Z,3.60
2023-02-01T22:05:11.142Z,3.22
2023-02-01T22:07:38.937Z,2.85
2023-02-01T22:10:08.899Z,3.00
2023-02-01T22:12:36.634Z,3.33
2023-02-01T22:15:04.586Z,3.65
2023-02-01T22:17:32.515Z,3.55
2023-02-01T22:20:00.257Z,3.17
2023-02-01T22:22:27.999Z,3.10
2023-02-01T22:24:55.646Z,2.72
2023-02-01T22:27:30.522Z,2.90
2023-02-01T22:30:13.662Z,2.95
2023-02-01T22:32:41.384Z,3.35
2023-02-01T22:35:09.752Z,4.63
2023-02-01T22:37:37.590Z,3.63
2023-02-01T22:40:05.752Z,3.38
2023-02-01T22:42:34.897Z,3.67
2023-02-01T22:45:04.513Z,2.90
2023-02-01T22:47:32.279Z,3.10
2023-02-01T22:50:00.001Z,3.35
2023-02-01T22:52:27.688Z,3.25
2023-02-01T22:54:55.668Z,3.90
2023-02-01T22:57:23.339Z,3.58
2023-02-01T22:59:52.378Z,3.88
2023-02-01T23:02:20.103Z,4.00
2023-02-01T23:04:47.819Z,3.80
2023-02-01T23:07:15.772Z,3.90
2023-02-01T23:09:43.516Z,4.38
2023-02-01T23:12:11.205Z,4.85
2023-02-01T23:14:59.214Z,5.40
2023-02-01T23:17:28.257Z,5.28
2023-02-01T23:19:55.899Z,4.80
2023-02-01T23:22:23.623Z,4.82
2023-02-01T23:24:51.456Z,5.75
2023-02-01T23:27:20.015Z,5.30
2023-02-01T23:29:47.761Z,5.32
2023-02-01T23:32:16.231Z,6.05
2023-02-01T23:34:45.342Z,5.00
2023-02-01T23:37:12.989Z,6.03
2023-02-01T23:39:40.694Z,7.57
2023-02-01T23:42:08.439Z,7.78
2023-02-01T23:44:36.139Z,7.45
2023-02-01T23:47:03.928Z,7.05
2023-02-01T23:49:31.598Z,5.78
2023-02-01T23:52:00.731Z,4.53
2023-02-01T23:54:28.469Z,3.40
2023-02-01T23:56:57.257Z,2.55
2023-02-01T23:59:27.044Z,2.35
